createdAt,value
2022-12-13T00:01:29.663Z,100101.34
2022-12-13T00:03:58.454Z,100100.03
2022-12-13T00:06:25.940Z,100094.38
2022-12-13T00:08:53.380Z,100087.47
2022-12-13T00:11:22.084Z,100091.59
2022-12-13T00:13:49.094Z,100087.94
2022-12-13T00:16:20.351Z,100089.31
2022-12-13T00:18:47.779Z,100088.88
2022-12-13T00:21:19.599Z,100087.81
2022-12-13T00:23:47.024Z,100078.53
2022-12-13T00:26:20.842Z,100077.97
2022-12-13T00:28:51.279Z,100070.72
2022-12-13T00:31:53.354Z,100071.91
2022-12-13T00:34:08.452Z,100066.22
2022-12-13T00:36:34.950Z,100074.72
2022-12-13T00:39:01.626Z,100075.09
2022-12-13T00:41:34.312Z,100073.69
2022-12-13T00:44:04.191Z,100066.97
2022-12-13T00:46:31.245Z,100066.69
2022-12-13T00:49:00.234Z,100066.09
2022-12-13T00:51:30.979Z,100071.53
2022-12-13T00:53:57.624Z,100069.53
2022-12-13T00:56:27.388Z,100076.00
2022-12-13T00:58:54.380Z,100070.28
2022-12-13T01:01:26.504Z,100062.00
2022-12-13T01:03:58.294Z,100061.34
2022-12-13T01:06:31.455Z,100050.22
2022-12-13T01:09:03.854Z,100054.53
2022-12-13T01:11:30.346Z,100055.69
2022-12-13T01:13:56.781Z,100049.28
2022-12-13T01:16:23.296Z,100057.69
2022-12-13T01:18:50.507Z,100054.44
2022-12-13T01:21:19.264Z,100054.81
2022-12-13T01:23:45.857Z,100063.09
2022-12-13T01:26:16.027Z,100062.41
2022-12-13T01:28:42.867Z,100061.19
2022-12-13T01:31:13.306Z,100064.06
2022-12-13T01:33:42.459Z,100061.56
2022-12-13T01:36:13.052Z,100057.19
2022-12-13T01:38:39.627Z,100047.38
2022-12-13T01:41:16.697Z,100056.97
2022-12-13T01:43:44.367Z,100055.06
2022-12-13T01:46:13.648Z,100043.19
2022-12-13T01:49:02.361Z,100044.88
2022-12-13T01:51:39.381Z,100043.84
2022-12-13T01:54:11.321Z,100043.69
2022-12-13T01:56:42.316Z,100044.66
2022-12-13T01:59:11.350Z,100043.81
2022-12-13T02:01:38.993Z,100043.25
2022-12-13T02:04:06.116Z,100044.63
2022-12-13T02:06:36.113Z,100048.66
2022-12-13T02:09:05.780Z,100039.28
2022-12-13T02:11:33.977Z,100041.22
2022-12-13T02:14:00.560Z,100036.72
2022-12-13T02:16:57.578Z,100035.22
2022-12-13T02:19:36.140Z,100026.69
2022-12-13T02:22:11.644Z,100028.41
2022-12-13T02:24:40.929Z,100035.22
2022-12-13T02:27:12.063Z,100030.91
2022-12-13T02:29:57.958Z,100032.53
2022-12-13T02:32:52.018Z,100034.34
2022-12-13T02:35:23.945Z,100041.63
2022-12-13T02:37:56.280Z,100038.59
2022-12-13T02:40:31.387Z,100024.84
2022-12-13T02:43:21.388Z,100019.63
2022-12-13T02:46:01.235Z,100022.53
2022-12-13T02:48:32.418Z,100022.31
2022-12-13T02:51:00.696Z,100023.28
2022-12-13T02:53:27.589Z,100024.59
2022-12-13T02:55:54.080Z,100023.16
2022-12-13T02:58:29.563Z,100032.56
2022-12-13T03:01:40.370Z,100023.59
2022-12-13T03:04:26.288Z,100026.56
2022-12-13T03:07:08.865Z,100025.75
2022-12-13T03:10:13.910Z,100034.53
2022-12-13T03:13:09.948Z,100018.31
2022-12-13T03:15:41.850Z,100019.97
2022-12-13T03:18:15.329Z,100002.63
2022-12-13T03:20:53.454Z,100012.66
2022-12-13T03:23:21.057Z,100007.25
2022-12-13T03:25:50.934Z,100015.59
2022-12-13T03:28:20.252Z,100009.00
2022-12-13T03:30:46.658Z,100002.81
2022-12-13T03:33:13.200Z,100008.97
2022-12-13T03:35:44.846Z,100006.72
2022-12-13T03:38:22.040Z,100012.03
2022-12-13T03:40:55.849Z,100006.56
2022-12-13T03:43:23.198Z,100005.94
2022-12-13T03:45:51.259Z,100012.19
2022-12-13T03:48:23.036Z,100011.47
2022-12-13T03:50:54.090Z,100008.59
2022-12-13T03:53:33.641Z,100008.88
2022-12-13T03:56:03.109Z,100012.25
2022-12-13T03:58:36.134Z,100008.75
2022-12-13T04:01:09.802Z,100010.53
2022-12-13T04:03:37.924Z,100011.25
2022-12-13T04:06:05.194Z,100003.50
2022-12-13T04:08:31.711Z,100005.22
2022-12-13T04:10:58.208Z,100008.81
2022-12-13T04:13:33.224Z,100000.34
2022-12-13T04:16:01.171Z,100002.63
2022-12-13T04:18:30.614Z,100011.63
2022-12-13T04:20:57.650Z,100015.72
2022-12-13T04:23:26.761Z,100005.66
2022-12-13T04:25:53.242Z,100006.81
2022-12-13T04:28:22.550Z,100007.28
2022-12-13T04:30:53.989Z,100001.91
2022-12-13T04:33:24.437Z,99996.59
2022-12-13T04:35:51.690Z,99997.06
2022-12-13T04:38:18.589Z,99990.53
2022-12-13T04:40:45.092Z,99996.41
2022-12-13T04:43:11.569Z,100001.09
2022-12-13T04:45:42.786Z,99992.13
2022-12-13T04:48:09.355Z,99985.22
2022-12-13T04:50:38.226Z,99993.31
2022-12-13T04:53:04.663Z,99996.06
2022-12-13T04:55:31.384Z,100002.38
2022-12-13T04:57:57.887Z,99998.75
2022-12-13T05:00:24.384Z,99991.41
2022-12-13T05:02:53.149Z,99984.03
2022-12-13T05:05:19.677Z,99982.25
2022-12-13T05:07:48.564Z,99981.41
2022-12-13T05:10:15.658Z,99983.00
2022-12-13T05:13:02.106Z,99984.72
2022-12-13T05:15:30.874Z,99974.06
2022-12-13T05:18:11.001Z,99977.56
2022-12-13T05:20:39.412Z,99981.94
2022-12-13T05:23:05.959Z,99978.94
2022-12-13T05:25:37.083Z,99988.00
2022-12-13T05:28:08.990Z,99985.88
2022-12-13T05:30:51.635Z,99982.97
2022-12-13T05:33:20.604Z,99979.38
2022-12-13T05:35:47.237Z,99968.31
2022-12-13T05:38:16.277Z,99970.31
2022-12-13T05:40:45.223Z,99968.09
2022-12-13T05:43:22.001Z,99958.19
2022-12-13T05:45:49.082Z,99971.50
2022-12-13T05:48:15.796Z,99963.50
2022-12-13T05:50:51.203Z,99967.88
2022-12-13T05:53:30.492Z,99962.13
2022-12-13T05:56:08.815Z,99963.88
2022-12-13T05:58:37.016Z,99959.22
2022-12-13T06:01:11.609Z,99962.06
2022-12-13T06:03:38.503Z,99961.47
2022-12-13T06:06:08.858Z,99961.56
2022-12-13T06:08:38.154Z,99960.50
2022-12-13T06:11:10.801Z,99958.75
2022-12-13T06:13:43.849Z,99976.72
2022-12-13T06:16:21.679Z,99968.44
2022-12-13T06:18:54.459Z,99976.41
2022-12-13T06:21:25.727Z,99975.91
2022-12-13T06:23:52.253Z,99975.34
2022-12-13T06:26:21.255Z,99979.88
2022-12-13T06:28:47.604Z,99979.44
2022-12-13T06:31:14.078Z,99986.06
2022-12-13T06:33:40.487Z,99978.84
2022-12-13T06:36:07.636Z,99988.13
2022-12-13T06:38:34.049Z,99979.22
2022-12-13T06:41:12.292Z,99982.09
2022-12-13T06:43:42.002Z,99977.19
2022-12-13T06:46:08.531Z,99981.75
2022-12-13T06:48:35.882Z,99977.13
2022-12-13T06:51:04.987Z,99986.91
2022-12-13T06:53:32.153Z,99985.09
2022-12-13T06:56:03.899Z,99983.59
2022-12-13T06:58:30.452Z,99986.44
2022-12-13T07:01:24.732Z,99984.28
2022-12-13T07:03:54.056Z,99983.75
2022-12-13T07:06:24.454Z,99993.19
2022-12-13T07:08:53.779Z,99984.94
2022-12-13T07:11:25.276Z,99981.25
2022-12-13T07:13:57.232Z,99988.44
2022-12-13T07:16:24.583Z,99993.28
2022-12-13T07:19:01.219Z,99999.63
2022-12-13T07:21:29.363Z,100005.72
2022-12-13T07:23:58.385Z,100011.59
2022-12-13T07:26:25.295Z,100017.56
2022-12-13T07:28:55.301Z,100010.38
2022-12-13T07:31:24.180Z,100023.72
2022-12-13T07:33:53.688Z,100030.66
2022-12-13T07:36:22.051Z,100022.19
2022-12-13T07:38:57.294Z,100030.91
2022-12-13T07:41:25.210Z,100032.13
2022-12-13T07:43:54.784Z,100037.53
2022-12-13T07:46:25.967Z,100035.84
2022-12-13T07:49:01.844Z,100031.28
2022-12-13T07:51:28.661Z,100033.19
2022-12-13T07:53:55.084Z,100046.47
2022-12-13T07:56:21.468Z,100042.69
2022-12-13T07:58:47.980Z,100047.00
2022-12-13T08:01:14.542Z,100046.81
2022-12-13T08:03:40.893Z,100041.13
2022-12-13T08:06:12.385Z,100041.78
2022-12-13T08:08:41.767Z,100030.09
2022-12-13T08:11:16.715Z,100026.94
2022-12-13T08:13:43.292Z,100009.09
2022-12-13T08:16:27.506Z,100011.69
2022-12-13T08:19:01.574Z,100020.66
2022-12-13T08:24:20.295Z,100045.75
2022-12-13T08:26:46.798Z,100046.94
2022-12-13T08:29:13.394Z,100036.53
2022-12-13T08:31:52.580Z,100021.00
2022-12-13T08:34:19.086Z,100020.88
2022-12-13T08:36:45.462Z,100021.97
2022-12-13T08:39:11.847Z,100016.63
2022-12-13T08:41:39.437Z,100013.97
2022-12-13T08:44:06.389Z,100022.19
2022-12-13T08:46:33.002Z,100031.97
2022-12-13T08:48:59.592Z,100029.97
2022-12-13T08:51:35.255Z,100034.44
2022-12-13T08:54:10.340Z,100029.97
2022-12-13T08:56:38.718Z,100033.34
2022-12-13T08:59:10.155Z,100036.75
2022-12-13T09:01:38.883Z,100034.38
2022-12-13T09:04:07.594Z,100018.16
2022-12-13T09:06:37.187Z,100035.41
2022-12-13T09:09:03.856Z,100023.16
2022-12-13T09:11:33.195Z,100018.56
2022-12-13T09:14:04.894Z,100041.50
2022-12-13T09:16:36.007Z,100058.53
2022-12-13T09:19:06.651Z,100033.81
2022-12-13T09:21:53.575Z,100033.28
2022-12-13T09:24:29.370Z,100036.59
2022-12-13T09:27:03.486Z,100065.44
2022-12-13T09:29:36.321Z,100053.50
2022-12-13T09:32:02.833Z,100047.06
2022-12-13T09:34:29.545Z,100042.28
2022-12-13T09:37:01.671Z,100035.38
2022-12-13T09:39:29.147Z,100046.53
2022-12-13T09:42:00.968Z,100043.38
2022-12-13T09:44:32.042Z,100064.47
2022-12-13T09:47:03.544Z,100046.78
2022-12-13T09:49:35.876Z,100046.78
2022-12-13T09:52:11.155Z,100036.09
2022-12-13T09:54:47.683Z,100036.50
2022-12-13T09:57:31.435Z,100033.09
2022-12-13T10:00:02.804Z,100050.88
2022-12-13T10:02:37.668Z,100032.84
2022-12-13T10:05:22.913Z,100051.38
2022-12-13T10:07:52.506Z,100042.41
2022-12-13T10:10:20.481Z,100032.84
2022-12-13T10:12:54.729Z,100044.22
2022-12-13T10:15:22.911Z,100016.84
2022-12-13T10:17:55.241Z,100057.06
2022-12-13T10:20:28.773Z,100016.66
2022-12-13T10:23:30.572Z,100044.81
2022-12-13T10:25:50.874Z,100008.13
2022-12-13T10:28:24.159Z,100011.56
2022-12-13T10:30:50.652Z,100036.97
2022-12-13T10:33:30.702Z,100024.03
2022-12-13T10:36:29.981Z,100015.41
2022-12-13T10:38:56.588Z,100035.00
2022-12-13T10:41:33.397Z,100043.63
2022-12-13T10:44:07.352Z,100038.78
2022-12-13T10:46:38.244Z,100026.28
2022-12-13T10:49:16.865Z,100005.31
2022-12-13T10:51:43.908Z,100011.41
2022-12-13T10:54:48.302Z,100009.09
2022-12-13T10:57:16.497Z,100022.09
2022-12-13T10:59:45.429Z,100015.66
2022-12-13T11:02:37.871Z,99992.72
2022-12-13T11:05:27.019Z,99973.78
2022-12-13T11:08:00.889Z,99999.03
2022-12-13T11:10:29.490Z,100005.09
2022-12-13T11:13:05.655Z,99994.91
2022-12-13T11:15:39.883Z,99967.09
2022-12-13T11:18:18.261Z,99995.06
2022-12-13T11:21:00.655Z,99981.19
2022-12-13T11:23:34.301Z,99996.47
2022-12-13T11:26:08.291Z,100010.47
2022-12-13T11:28:51.707Z,100002.06
2022-12-13T11:31:39.231Z,99948.16
2022-12-13T11:34:17.907Z,99981.91
2022-12-13T11:36:58.446Z,99959.94
2022-12-13T11:39:29.402Z,99996.03
2022-12-13T11:42:24.921Z,99986.19
2022-12-13T11:45:31.808Z,99989.22
2022-12-13T11:48:50.915Z,100006.81
2022-12-13T11:51:25.252Z,99978.28
2022-12-13T11:53:58.501Z,99953.88
2022-12-13T11:56:30.880Z,99944.03
2022-12-13T11:59:26.897Z,99951.56
2022-12-13T12:02:07.349Z,99942.06
2022-12-13T12:05:00.732Z,99947.16
2022-12-13T12:08:05.128Z,99953.00
2022-12-13T12:10:47.398Z,99975.84
2022-12-13T12:13:21.925Z,99961.03
2022-12-13T12:16:11.074Z,99964.91
2022-12-13T12:18:37.597Z,99975.13
2022-12-13T12:22:12.700Z,99960.06
2022-12-13T12:24:47.005Z,99979.22
2022-12-13T12:27:32.114Z,99966.97
2022-12-13T12:30:10.098Z,99969.38
2022-12-13T12:33:06.405Z,99963.81
2022-12-13T12:35:56.024Z,99951.66
2022-12-13T12:38:38.476Z,99961.00
2022-12-13T12:41:45.621Z,99938.91
2022-12-13T12:44:34.635Z,99939.59
2022-12-13T12:48:08.914Z,99939.50
2022-12-13T12:50:45.206Z,99936.34
2022-12-13T12:53:17.647Z,99921.84
2022-12-13T12:55:51.558Z,99923.56
2022-12-13T12:58:35.885Z,99929.50
2022-12-13T13:01:21.677Z,99926.38
2022-12-13T13:03:51.199Z,99933.16
2022-12-13T13:06:28.315Z,99931.22
2022-12-13T13:09:00.811Z,99916.88
2022-12-13T13:11:31.316Z,99938.88
2022-12-13T13:14:01.689Z,99926.47
2022-12-13T13:16:37.696Z,99923.91
2022-12-13T13:19:33.218Z,99927.44
2022-12-13T13:22:01.366Z,99915.88
2022-12-13T13:24:30.520Z,99908.00
2022-12-13T13:27:29.603Z,99900.94
2022-12-13T13:30:06.806Z,99906.03
2022-12-13T13:32:37.350Z,99910.53
2022-12-13T13:35:32.500Z,99911.66
2022-12-13T13:38:03.498Z,99894.63
2022-12-13T13:40:37.717Z,99899.25
2022-12-13T13:43:14.274Z,99896.56
2022-12-13T13:45:51.363Z,99897.56
2022-12-13T13:48:56.883Z,99891.75
2022-12-13T13:52:23.875Z,99906.06
2022-12-13T13:55:05.007Z,99917.63
2022-12-13T13:58:21.653Z,99907.03
2022-12-13T14:00:57.585Z,99905.47
2022-12-13T14:03:44.578Z,99905.72
2022-12-13T14:06:29.065Z,99916.16
2022-12-13T14:09:29.764Z,99898.94
2022-12-13T14:12:20.566Z,99885.34
2022-12-13T14:15:01.713Z,99883.75
2022-12-13T14:18:21.479Z,99878.91
2022-12-13T14:21:03.099Z,99884.75
2022-12-13T14:24:02.088Z,99881.59
2022-12-13T14:26:55.572Z,99882.94
2022-12-13T14:29:41.560Z,99889.84
2022-12-13T14:32:28.355Z,99889.75
2022-12-13T14:34:59.953Z,99881.72
2022-12-13T14:38:02.689Z,99904.94
2022-12-13T14:40:37.832Z,99887.69
2022-12-13T14:43:04.447Z,99917.31
2022-12-13T14:45:34.424Z,99900.28
2022-12-13T14:48:05.814Z,99910.16
2022-12-13T14:50:35.324Z,99910.25
2022-12-13T14:53:05.081Z,99881.97
2022-12-13T14:55:36.620Z,99904.19
2022-12-13T14:58:17.394Z,99922.50
2022-12-13T15:00:45.994Z,99901.63
2022-12-13T15:03:22.356Z,99924.09
2022-12-13T15:05:54.509Z,99882.56
2022-12-13T15:08:21.597Z,99885.00
2022-12-13T15:10:51.692Z,99876.00
2022-12-13T15:13:40.044Z,99867.50
2022-12-13T15:16:16.622Z,99873.56
2022-12-13T15:18:43.070Z,99844.66
2022-12-13T15:21:25.265Z,99852.56
2022-12-13T15:23:58.184Z,99853.03
2022-12-13T15:26:28.918Z,99837.41
2022-12-13T15:29:00.752Z,99843.97
2022-12-13T15:31:28.406Z,99830.59
2022-12-13T15:34:01.146Z,99834.34
2022-12-13T15:36:32.024Z,99831.06
2022-12-13T15:39:00.727Z,99822.09
2022-12-13T15:41:34.023Z,99812.53
2022-12-13T15:44:07.862Z,99835.19
2022-12-13T15:46:40.408Z,99839.69
2022-12-13T15:49:22.479Z,99818.72
2022-12-13T15:52:14.287Z,99843.22
2022-12-13T15:54:40.815Z,99831.44
2022-12-13T15:57:24.294Z,99814.09
2022-12-13T16:00:05.537Z,99799.56
2022-12-13T16:02:34.994Z,99841.06
2022-12-13T16:05:10.028Z,99849.19
2022-12-13T16:07:39.779Z,99843.38
2022-12-13T16:10:08.118Z,99816.53
2022-12-13T16:12:47.929Z,99814.00
2022-12-13T16:15:29.338Z,99796.88
2022-12-13T16:18:12.703Z,99795.69
2022-12-13T16:20:39.508Z,99786.56
2022-12-13T16:23:09.042Z,99792.16
2022-12-13T16:25:36.068Z,99794.22
2022-12-13T16:28:02.626Z,99792.75
2022-12-13T16:30:51.832Z,99779.91
2022-12-13T16:33:26.588Z,99794.56
2022-12-13T16:35:56.920Z,99800.50
2022-12-13T16:38:26.848Z,99805.38
2022-12-13T16:41:00.819Z,99805.38
2022-12-13T16:43:39.650Z,99798.81
2022-12-13T16:47:11.591Z,99802.94
2022-12-13T16:48:54.216Z,99809.34
2022-12-13T16:51:21.516Z,99805.34
2022-12-13T16:53:48.511Z,99787.66
2022-12-13T16:56:21.665Z,99812.41
2022-12-13T16:58:50.304Z,99812.41
2022-12-13T17:01:20.498Z,99809.00
2022-12-13T17:03:49.405Z,99804.00
2022-12-13T17:06:20.187Z,99794.56
2022-12-13T17:08:49.704Z,99788.63
2022-12-13T17:11:18.249Z,99775.84
2022-12-13T17:13:47.030Z,99773.91
2022-12-13T17:16:18.374Z,99779.25
2022-12-13T17:18:44.860Z,99773.78
2022-12-13T17:21:14.438Z,99758.59
2022-12-13T17:23:40.899Z,99760.16
2022-12-13T17:26:08.662Z,99768.19
2022-12-13T17:28:35.575Z,99757.91
2022-12-13T17:31:11.966Z,99750.47
2022-12-13T17:33:39.374Z,99748.41
2022-12-13T17:36:07.787Z,99747.41
2022-12-13T17:38:34.733Z,99747.78
2022-12-13T17:41:01.332Z,99751.28
2022-12-13T17:43:34.791Z,99749.44
2022-12-13T17:46:06.631Z,99737.31
2022-12-13T17:48:39.563Z,99745.47
2022-12-13T17:51:08.456Z,99743.38
2022-12-13T17:53:36.044Z,99745.94
2022-12-13T17:56:06.315Z,99742.28
2022-12-13T17:58:32.855Z,99749.31
2022-12-13T18:01:08.705Z,99739.50
2022-12-13T18:03:35.138Z,99738.53
2022-12-13T18:06:01.708Z,99732.19
2022-12-13T18:08:30.465Z,99749.06
2022-12-13T18:11:31.235Z,99747.25
2022-12-13T18:13:48.262Z,99733.88
2022-12-13T18:16:21.847Z,99718.44
2022-12-13T18:18:54.720Z,99727.19
2022-12-13T18:21:23.218Z,99737.03
2022-12-13T18:23:55.140Z,99737.25
2022-12-13T18:26:22.110Z,99741.16
2022-12-13T18:28:48.501Z,99733.50
2022-12-13T18:31:20.540Z,99719.03
2022-12-13T18:33:48.196Z,99734.09
2022-12-13T18:36:16.422Z,99735.81
2022-12-13T18:38:43.207Z,99699.09
2022-12-13T18:41:13.839Z,99688.41
2022-12-13T18:43:41.876Z,99693.75
2022-12-13T18:46:10.082Z,99692.03
2022-12-13T18:48:36.572Z,99684.03
2022-12-13T18:51:08.351Z,99679.09
2022-12-13T18:53:35.356Z,99680.66
2022-12-13T18:56:04.656Z,99685.16
2022-12-13T18:58:35.809Z,99694.28
2022-12-13T19:01:03.253Z,99694.13
2022-12-13T19:03:33.375Z,99698.19
2022-12-13T19:06:01.225Z,99696.22
2022-12-13T19:08:30.650Z,99692.56
2022-12-13T19:11:03.260Z,99697.19
2022-12-13T19:13:31.109Z,99696.22
2022-12-13T19:16:03.547Z,99688.66
2022-12-13T19:18:29.926Z,99665.59
2022-12-13T19:20:56.333Z,99659.38
2022-12-13T19:23:23.367Z,99688.94
2022-12-13T19:25:50.120Z,99704.13
2022-12-13T19:28:17.521Z,99700.31
2022-12-13T19:30:46.266Z,99699.63
2022-12-13T19:33:13.843Z,99695.84
2022-12-13T19:35:42.970Z,99681.78
2022-12-13T19:38:10.033Z,99675.56
2022-12-13T19:40:40.054Z,99669.22
2022-12-13T19:43:06.890Z,99697.53
2022-12-13T19:45:33.813Z,99677.97
2022-12-13T19:48:00.224Z,99675.56
2022-12-13T19:50:26.752Z,99683.44
2022-12-13T19:52:53.258Z,99669.97
2022-12-13T19:55:19.755Z,99661.09
2022-12-13T19:57:46.127Z,99646.88
2022-12-13T20:00:13.700Z,99640.84
2022-12-13T20:02:42.628Z,99654.56
2022-12-13T20:05:10.214Z,99635.97
2022-12-13T20:07:36.931Z,99632.94
2022-12-13T20:10:08.836Z,99641.34
2022-12-13T20:12:40.452Z,99651.75
2022-12-13T20:15:08.154Z,99651.44
2022-12-13T20:17:36.074Z,99649.63
2022-12-13T20:20:03.930Z,99645.25
2022-12-13T20:22:31.995Z,99615.03
2022-12-13T20:24:58.683Z,99599.97
2022-12-13T20:27:28.100Z,99620.22
2022-12-13T20:29:57.027Z,99632.22
2022-12-13T20:32:28.625Z,99620.69
2022-12-13T20:34:55.749Z,99636.47
2022-12-13T20:37:24.994Z,99629.88
2022-12-13T20:39:51.518Z,99625.13
2022-12-13T20:42:18.224Z,99624.38
2022-12-13T20:44:45.017Z,99612.59
2022-12-13T20:47:11.686Z,99614.16
2022-12-13T20:49:38.089Z,99628.38
2022-12-13T20:52:05.256Z,99619.22
2022-12-13T20:54:31.733Z,99628.00
2022-12-13T20:56:58.100Z,99623.50
2022-12-13T20:59:24.512Z,99620.94
2022-12-13T21:01:51.015Z,99605.00
2022-12-13T21:04:18.193Z,99599.09
2022-12-13T21:06:47.315Z,99600.66
2022-12-13T21:09:13.682Z,99610.34
2022-12-13T21:11:46.813Z,99597.00
2022-12-13T21:14:21.986Z,99589.97
2022-12-13T21:17:00.377Z,99586.31
2022-12-13T21:19:33.121Z,99585.72
2022-12-13T21:22:02.725Z,99587.31
2022-12-13T21:24:32.135Z,99584.38
2022-12-13T21:26:59.854Z,99588.00
2022-12-13T21:29:26.458Z,99580.97
2022-12-13T21:31:56.041Z,99588.88
2022-12-13T21:34:23.303Z,99585.22
2022-12-13T21:36:52.378Z,99578.28
2022-12-13T21:39:24.844Z,99566.50
2022-12-13T21:41:52.254Z,99549.50
2022-12-13T21:44:19.271Z,99566.34
2022-12-13T21:47:11.506Z,99562.00
2022-12-13T21:49:33.241Z,99529.22
2022-12-13T21:52:01.957Z,99536.53
2022-12-13T21:54:28.403Z,99525.69
2022-12-13T21:57:13.785Z,99526.25
2022-12-13T21:59:40.236Z,99523.88
2022-12-13T22:02:18.385Z,99549.66
2022-12-13T22:04:48.309Z,99539.38
2022-12-13T22:07:22.287Z,99519.66
2022-12-13T22:09:49.855Z,99502.66
2022-12-13T22:12:41.772Z,99509.81
2022-12-13T22:15:12.746Z,99485.66
2022-12-13T22:17:39.913Z,99500.44
2022-12-13T22:20:12.638Z,99481.00
2022-12-13T22:22:43.949Z,99484.25
2022-12-13T22:25:10.420Z,99479.75
2022-12-13T22:27:36.953Z,99473.56
2022-12-13T22:30:04.059Z,99451.59
2022-12-13T22:32:32.131Z,99455.00
2022-12-13T22:34:59.050Z,99473.81
2022-12-13T22:37:25.897Z,99475.38
2022-12-13T22:39:52.558Z,99472.56
2022-12-13T22:42:22.095Z,99464.56
2022-12-13T22:44:48.508Z,99474.84
2022-12-13T22:47:15.067Z,99479.47
2022-12-13T22:49:41.694Z,99464.28
2022-12-13T22:52:10.734Z,99452.59
2022-12-13T22:54:37.188Z,99459.50
2022-12-13T22:57:06.171Z,99458.09
2022-12-13T22:59:32.954Z,99453.47
2022-12-13T23:02:02.523Z,99458.66
2022-12-13T23:04:31.831Z,99437.84
2022-12-13T23:07:00.717Z,99435.03
2022-12-13T23:09:27.179Z,99433.34
2022-12-13T23:12:12.076Z,99448.53
2022-12-13T23:14:38.407Z,99449.38
2022-12-13T23:17:05.104Z,99437.00
2022-12-13T23:19:41.454Z,99430.81
2022-12-13T23:22:17.794Z,99419.28
2022-12-13T23:24:46.779Z,99442.38
2022-12-13T23:27:13.149Z,99416.72
2022-12-13T23:29:39.626Z,99407.72
2022-12-13T23:32:06.202Z,99412.09
2022-12-13T23:34:32.767Z,99413.75
2022-12-13T23:37:01.700Z,99418.13
2022-12-13T23:39:30.427Z,99436.72
2022-12-13T23:41:56.917Z,99426.72
2022-12-13T23:44:23.475Z,99417.84
2022-12-13T23:46:50.180Z,99417.00
2022-12-13T23:49:16.670Z,99421.53
2022-12-13T23:51:46.050Z,99430.38
2022-12-13T23:54:16.466Z,99407.31
2022-12-13T23:56:43.443Z,99409.84
2022-12-13T23:59:10.229Z,99408.97
